createdAt,value
2022-12-13T00:00:14.871Z,4.95
2022-12-13T00:02:41.054Z,5.25
2022-12-13T00:05:07.216Z,5.07
2022-12-13T00:07:33.337Z,5.10
2022-12-13T00:09:59.460Z,5.68
2022-12-13T00:12:25.562Z,4.47
2022-12-13T00:14:51.680Z,5.80
2022-12-13T00:17:17.916Z,4.85
2022-12-13T00:19:44.329Z,5.10
2022-12-13T00:22:10.482Z,4.95
2022-12-13T00:24:39.092Z,5.13
2022-12-13T00:27:09.031Z,5.55
2022-12-13T00:29:35.152Z,5.20
2022-12-13T00:32:01.552Z,5.65
2022-12-13T00:34:27.859Z,4.93
2022-12-13T00:36:53.997Z,5.18
2022-12-13T00:39:20.093Z,5.32
2022-12-13T00:41:46.222Z,5.30
2022-12-13T00:44:12.320Z,5.50
2022-12-13T00:46:38.441Z,6.15
2022-12-13T00:49:04.554Z,5.18
2022-12-13T00:51:30.680Z,5.25
2022-12-13T00:53:56.774Z,5.75
2022-12-13T00:56:22.920Z,4.45
2022-12-13T00:58:52.052Z,5.07
2022-12-13T01:01:18.619Z,4.63
2022-12-13T01:03:44.902Z,5.05
2022-12-13T01:06:15.650Z,5.20
2022-12-13T01:08:42.440Z,5.07
2022-12-13T01:11:08.581Z,5.13
2022-12-13T01:13:34.721Z,4.72
2022-12-13T01:16:00.859Z,5.38
2022-12-13T01:18:26.977Z,4.97
2022-12-13T01:20:53.072Z,4.47
2022-12-13T01:23:19.220Z,4.80
2022-12-13T01:25:45.314Z,5.05
2022-12-13T01:28:11.419Z,5.05
2022-12-13T01:30:37.682Z,4.63
2022-12-13T01:33:14.240Z,4.55
2022-12-13T01:35:40.773Z,5.18
2022-12-13T01:38:15.818Z,4.97
2022-12-13T01:40:42.331Z,4.20
2022-12-13T01:43:14.497Z,4.20
2022-12-13T01:45:41.123Z,4.32
2022-12-13T01:48:07.252Z,4.50
2022-12-13T01:50:33.347Z,4.60
2022-12-13T01:53:00.172Z,4.28
2022-12-13T01:55:26.763Z,5.00
2022-12-13T01:57:52.902Z,4.50
2022-12-13T02:00:18.994Z,4.53
2022-12-13T02:02:45.146Z,4.65
2022-12-13T02:05:11.316Z,4.55
2022-12-13T02:07:37.516Z,4.53
2022-12-13T02:10:03.616Z,4.68
2022-12-13T02:12:30.345Z,5.10
2022-12-13T02:14:56.684Z,4.45
2022-12-13T02:17:26.939Z,4.90
2022-12-13T02:19:53.047Z,4.97
2022-12-13T02:22:19.188Z,5.13
2022-12-13T02:24:45.307Z,4.63
2022-12-13T02:27:11.466Z,4.93
2022-12-13T02:29:37.614Z,5.65
2022-12-13T02:32:03.709Z,5.55
2022-12-13T02:34:29.837Z,4.50
2022-12-13T02:37:00.268Z,5.00
2022-12-13T02:39:30.234Z,5.05
2022-12-13T02:41:57.047Z,7.07
2022-12-13T02:44:23.424Z,5.20
2022-12-13T02:46:49.595Z,5.45
2022-12-13T02:49:15.724Z,5.28
2022-12-13T02:51:41.825Z,5.45
2022-12-13T02:54:08.070Z,4.82
2022-12-13T02:56:34.181Z,5.72
2022-12-13T02:59:00.285Z,5.32
2022-12-13T03:01:27.854Z,5.32
2022-12-13T03:03:55.693Z,4.68
2022-12-13T03:06:33.452Z,5.63
2022-12-13T03:09:00.523Z,4.35
2022-12-13T03:11:26.892Z,5.53
2022-12-13T03:13:53.036Z,5.45
2022-12-13T03:16:22.869Z,5.25
2022-12-13T03:18:49.554Z,5.70
2022-12-13T03:21:16.436Z,5.40
2022-12-13T03:23:42.559Z,6.00
2022-12-13T03:26:08.693Z,5.22
2022-12-13T03:28:34.836Z,6.10
2022-12-13T03:31:01.017Z,5.53
2022-12-13T03:33:27.140Z,5.70
2022-12-13T03:35:53.244Z,5.50
2022-12-13T03:38:21.390Z,5.95
2022-12-13T03:40:48.842Z,5.60
2022-12-13T03:43:14.966Z,5.50
2022-12-13T03:45:48.640Z,6.00
2022-12-13T03:48:14.814Z,5.97
2022-12-13T03:50:48.984Z,5.68
2022-12-13T03:53:22.751Z,5.85
2022-12-13T03:55:58.999Z,5.78
2022-12-13T03:58:27.172Z,6.10
2022-12-13T04:01:02.840Z,5.68
2022-12-13T04:03:29.011Z,5.68
2022-12-13T04:05:55.175Z,5.63
2022-12-13T04:08:21.797Z,6.15
2022-12-13T04:10:48.699Z,5.60
2022-12-13T04:13:14.823Z,6.47
2022-12-13T04:15:40.936Z,6.10
2022-12-13T04:18:07.059Z,5.78
2022-12-13T04:20:33.169Z,5.88
2022-12-13T04:22:59.306Z,6.30
2022-12-13T04:25:25.411Z,5.95
2022-12-13T04:27:51.513Z,5.82
2022-12-13T04:30:17.642Z,5.85
2022-12-13T04:32:43.824Z,6.00
2022-12-13T04:35:09.943Z,6.10
2022-12-13T04:37:36.048Z,6.25
2022-12-13T04:40:02.169Z,6.53
2022-12-13T04:42:28.381Z,6.53
2022-12-13T04:44:54.508Z,5.97
2022-12-13T04:47:20.655Z,6.05
2022-12-13T04:49:46.769Z,6.13
2022-12-13T04:52:12.872Z,5.55
2022-12-13T04:54:48.396Z,5.88
2022-12-13T04:57:22.104Z,6.30
2022-12-13T04:59:48.793Z,5.55
2022-12-13T05:02:14.906Z,5.72
2022-12-13T05:04:53.798Z,5.22
2022-12-13T05:07:20.202Z,5.50
2022-12-13T05:09:46.308Z,5.38
2022-12-13T05:12:21.848Z,5.55
2022-12-13T05:14:49.077Z,5.30
2022-12-13T05:17:15.172Z,5.82
2022-12-13T05:19:41.281Z,5.00
2022-12-13T05:22:07.385Z,5.47
2022-12-13T05:24:33.565Z,5.60
2022-12-13T05:26:59.738Z,4.78
2022-12-13T05:29:25.849Z,5.25
2022-12-13T05:31:52.051Z,5.85
2022-12-13T05:34:18.200Z,5.65
2022-12-13T05:36:44.323Z,5.40
2022-12-13T05:39:28.915Z,5.20
2022-12-13T05:41:55.915Z,4.85
2022-12-13T05:44:28.274Z,6.07
2022-12-13T05:46:54.381Z,5.03
2022-12-13T05:49:20.491Z,9.52
2022-12-13T05:51:46.621Z,6.85
2022-12-13T05:54:12.727Z,5.18
2022-12-13T05:56:38.870Z,6.35
2022-12-13T05:59:05.059Z,4.85
2022-12-13T06:01:31.205Z,5.18
2022-12-13T06:03:57.345Z,4.88
2022-12-13T06:06:23.499Z,4.80
2022-12-13T06:08:49.657Z,4.85
2022-12-13T06:11:31.576Z,5.65
2022-12-13T06:14:00.782Z,4.57
2022-12-13T06:16:27.566Z,5.10
2022-12-13T06:19:01.266Z,4.40
2022-12-13T06:21:40.669Z,4.43
2022-12-13T06:24:11.694Z,4.63
2022-12-13T06:26:37.820Z,4.75
2022-12-13T06:29:03.940Z,4.28
2022-12-13T06:31:30.047Z,4.75
2022-12-13T06:33:56.181Z,5.10
2022-12-13T06:36:22.283Z,5.40
2022-12-13T06:38:48.515Z,5.03
2022-12-13T06:41:14.623Z,4.80
2022-12-13T06:43:40.733Z,5.57
2022-12-13T06:46:06.892Z,5.45
2022-12-13T06:48:35.392Z,5.30
2022-12-13T06:51:01.532Z,5.22
2022-12-13T06:53:27.654Z,4.68
2022-12-13T06:55:53.764Z,4.93
2022-12-13T06:58:19.886Z,5.00
2022-12-13T07:00:48.857Z,4.47
2022-12-13T07:03:15.683Z,4.68
2022-12-13T07:05:43.131Z,4.72
2022-12-13T07:08:09.595Z,4.97
2022-12-13T07:10:35.736Z,5.00
2022-12-13T07:13:01.843Z,4.65
2022-12-13T07:15:27.992Z,5.20
2022-12-13T07:17:54.132Z,4.50
2022-12-13T07:20:20.241Z,4.70
2022-12-13T07:22:49.197Z,4.95
2022-12-13T07:25:27.782Z,5.28
2022-12-13T07:27:55.529Z,5.65
2022-12-13T07:30:28.053Z,4.47
2022-12-13T07:32:54.163Z,4.88
2022-12-13T07:35:20.309Z,5.72
2022-12-13T07:37:46.446Z,5.35
2022-12-13T07:40:12.570Z,5.35
2022-12-13T07:42:38.668Z,6.28
2022-12-13T07:45:04.821Z,5.53
2022-12-13T07:47:30.945Z,5.82
2022-12-13T07:49:57.110Z,5.55
2022-12-13T07:52:23.259Z,5.88
2022-12-13T07:54:49.431Z,5.57
2022-12-13T07:57:15.545Z,5.72
2022-12-13T07:59:41.667Z,5.60
2022-12-13T08:02:07.794Z,5.40
2022-12-13T08:04:37.677Z,5.57
2022-12-13T08:07:04.567Z,6.07
2022-12-13T08:09:30.682Z,5.07
2022-12-13T08:11:56.802Z,5.75
2022-12-13T08:14:27.362Z,5.68
2022-12-13T08:16:53.555Z,6.20
2022-12-13T08:19:19.677Z,4.95
2022-12-13T08:21:54.604Z,6.15
2022-12-13T08:24:21.638Z,5.55
2022-12-13T08:26:47.769Z,5.30
2022-12-13T08:29:13.900Z,5.30
2022-12-13T08:31:49.833Z,6.25
2022-12-13T08:34:15.981Z,6.00
2022-12-13T08:36:42.162Z,6.43
2022-12-13T08:39:08.265Z,6.03
2022-12-13T08:41:38.924Z,5.53
2022-12-13T08:44:05.490Z,5.78
2022-12-13T08:46:31.663Z,6.13
2022-12-13T08:48:57.867Z,5.90
2022-12-13T08:51:25.764Z,5.13
2022-12-13T08:53:54.484Z,5.45
2022-12-13T08:56:37.522Z,6.10
2022-12-13T08:59:03.626Z,6.65
2022-12-13T09:01:29.772Z,6.03
2022-12-13T09:03:55.882Z,8.30
2022-12-13T09:06:22.030Z,6.10
2022-12-13T09:08:51.871Z,6.35
2022-12-13T09:11:23.777Z,6.40
2022-12-13T09:14:02.795Z,6.30
2022-12-13T09:16:29.015Z,5.90
2022-12-13T09:19:06.629Z,6.60
2022-12-13T09:21:48.073Z,6.80
2022-12-13T09:24:24.170Z,6.55
2022-12-13T09:26:50.930Z,6.05
2022-12-13T09:29:23.531Z,4.95
2022-12-13T09:31:53.046Z,6.18
2022-12-13T09:34:19.685Z,6.32
2022-12-13T09:36:45.814Z,7.00
2022-12-13T09:39:11.939Z,6.60
2022-12-13T09:41:40.962Z,6.07
2022-12-13T09:44:07.553Z,6.22
2022-12-13T09:46:53.682Z,5.47
2022-12-13T09:49:27.137Z,6.82
2022-12-13T09:52:10.873Z,6.63
2022-12-13T09:54:44.815Z,6.25
2022-12-13T09:57:14.157Z,5.40
2022-12-13T10:00:01.146Z,5.97
2022-12-13T10:02:28.248Z,6.80
2022-12-13T10:04:54.393Z,5.45
2022-12-13T10:07:27.404Z,6.82
2022-12-13T10:09:53.566Z,6.68
2022-12-13T10:12:19.661Z,7.10
2022-12-13T10:14:45.792Z,6.57
2022-12-13T10:17:11.923Z,5.45
2022-12-13T10:19:38.078Z,5.88
2022-12-13T10:22:04.227Z,6.70
2022-12-13T10:24:36.322Z,6.40
2022-12-13T10:27:03.303Z,8.88
2022-12-13T10:29:30.083Z,5.85
2022-12-13T10:31:56.257Z,5.97
2022-12-13T10:34:22.413Z,5.30
2022-12-13T10:36:48.555Z,5.38
2022-12-13T10:39:14.682Z,4.68
2022-12-13T10:41:40.808Z,5.72
2022-12-13T10:44:06.912Z,5.20
2022-12-13T10:46:38.482Z,5.05
2022-12-13T10:49:05.122Z,5.35
2022-12-13T10:51:31.238Z,5.05
2022-12-13T10:53:57.396Z,5.10
2022-12-13T10:56:24.012Z,5.35
2022-12-13T10:58:50.210Z,5.55
2022-12-13T11:01:17.965Z,6.70
2022-12-13T11:03:44.129Z,5.82
2022-12-13T11:06:10.274Z,6.30
2022-12-13T11:08:36.391Z,5.57
2022-12-13T11:11:02.512Z,5.75
2022-12-13T11:13:28.656Z,6.18
2022-12-13T11:15:54.789Z,6.15
2022-12-13T11:18:21.154Z,5.82
2022-12-13T11:20:52.717Z,5.38
2022-12-13T11:23:20.333Z,5.13
2022-12-13T11:25:46.450Z,5.88
2022-12-13T11:28:25.800Z,7.30
2022-12-13T11:31:01.403Z,5.95
2022-12-13T11:33:27.853Z,6.45
2022-12-13T11:35:53.973Z,6.43
2022-12-13T11:38:20.117Z,6.53
2022-12-13T11:40:46.259Z,5.20
2022-12-13T11:43:12.469Z,5.72
2022-12-13T11:45:38.656Z,5.53
2022-12-13T11:48:04.862Z,5.60
2022-12-13T11:50:33.764Z,6.18
2022-12-13T11:53:00.346Z,6.90
2022-12-13T11:55:27.222Z,7.05
2022-12-13T11:57:53.350Z,6.40
2022-12-13T12:00:33.692Z,8.40
2022-12-13T12:03:00.941Z,7.10
2022-12-13T12:05:27.118Z,7.38
2022-12-13T12:08:31.325Z,8.00
2022-12-13T12:10:41.804Z,8.10
2022-12-13T12:13:11.911Z,8.88
2022-12-13T12:15:42.085Z,8.18
2022-12-13T12:18:08.513Z,7.95
2022-12-13T12:20:34.755Z,8.30
2022-12-13T12:23:00.921Z,9.50
2022-12-13T12:25:27.029Z,9.30
2022-12-13T12:27:53.153Z,9.30
2022-12-13T12:30:23.064Z,8.10
2022-12-13T12:32:50.044Z,7.90
2022-12-13T12:35:16.139Z,7.93
2022-12-13T12:37:42.265Z,7.78
2022-12-13T12:40:08.435Z,8.00
2022-12-13T12:42:50.237Z,7.30
2022-12-13T12:45:54.619Z,7.05
2022-12-13T12:48:49.046Z,7.60
2022-12-13T12:50:52.869Z,9.15
2022-12-13T12:53:19.025Z,12.32
2022-12-13T12:55:45.125Z,7.72
2022-12-13T12:58:11.262Z,8.27
2022-12-13T13:00:37.401Z,6.95
2022-12-13T13:03:07.953Z,7.07
2022-12-13T13:05:38.348Z,8.95
2022-12-13T13:08:04.465Z,10.25
2022-12-13T13:10:30.723Z,8.48
2022-12-13T13:13:11.389Z,8.05
2022-12-13T13:15:39.308Z,6.93
2022-12-13T13:18:05.467Z,7.50
2022-12-13T13:20:31.664Z,7.35
2022-12-13T13:23:31.900Z,7.30
2022-12-13T13:26:07.817Z,7.90
2022-12-13T13:28:30.072Z,8.15
2022-12-13T13:30:56.254Z,8.25
2022-12-13T13:33:26.977Z,8.05
2022-12-13T13:35:53.313Z,7.53
2022-12-13T13:38:19.507Z,7.38
2022-12-13T13:40:45.616Z,7.63
2022-12-13T13:43:11.754Z,9.07
2022-12-13T13:45:37.896Z,7.75
2022-12-13T13:48:04.201Z,7.95
2022-12-13T13:50:40.874Z,7.80
2022-12-13T13:53:06.996Z,8.77
2022-12-13T13:55:33.101Z,8.23
2022-12-13T13:58:21.841Z,7.63
2022-12-13T14:00:45.336Z,8.40
2022-12-13T14:03:33.461Z,8.23
2022-12-13T14:05:57.669Z,9.38
2022-12-13T14:08:23.797Z,8.45
2022-12-13T14:10:49.922Z,8.50
2022-12-13T14:13:16.291Z,9.05
2022-12-13T14:15:42.461Z,8.90
2022-12-13T14:18:21.479Z,8.20
2022-12-13T14:20:48.035Z,8.65
2022-12-13T14:23:14.209Z,8.60
2022-12-13T14:28:18.806Z,9.00
2022-12-13T14:30:47.838Z,7.47
2022-12-13T14:33:23.374Z,8.63
2022-12-13T14:35:49.746Z,7.97
2022-12-13T14:38:15.866Z,9.10
2022-12-13T14:40:42.012Z,8.32
2022-12-13T14:43:08.143Z,7.15
2022-12-13T14:45:34.263Z,7.82
2022-12-13T14:48:00.372Z,6.80
2022-12-13T14:50:26.615Z,6.18
2022-12-13T14:52:52.750Z,7.13
2022-12-13T14:55:18.882Z,6.43
2022-12-13T14:57:44.982Z,6.10
2022-12-13T15:00:11.123Z,6.95
2022-12-13T15:02:37.230Z,6.35
2022-12-13T15:05:03.481Z,6.22
2022-12-13T15:07:29.631Z,6.65
2022-12-13T15:09:55.782Z,5.82
2022-12-13T15:12:24.701Z,6.10
2022-12-13T15:14:51.788Z,6.03
2022-12-13T15:17:17.928Z,6.40
2022-12-13T15:19:48.729Z,5.82
2022-12-13T15:22:15.231Z,6.68
2022-12-13T15:24:41.369Z,6.82
2022-12-13T15:27:07.504Z,6.70
2022-12-13T15:29:35.452Z,6.68
2022-12-13T15:32:01.780Z,7.00
2022-12-13T15:34:29.078Z,7.22
2022-12-13T15:36:56.236Z,7.22
2022-12-13T15:39:22.340Z,6.70
2022-12-13T15:41:48.462Z,7.65
2022-12-13T15:44:14.559Z,7.38
2022-12-13T15:46:40.679Z,7.28
2022-12-13T15:49:06.779Z,7.85
2022-12-13T15:51:32.912Z,7.63
2022-12-13T15:53:59.097Z,7.75
2022-12-13T15:56:26.946Z,7.88
2022-12-13T15:58:53.065Z,7.88
2022-12-13T16:01:19.197Z,8.02
2022-12-13T16:03:45.460Z,11.48
2022-12-13T16:06:11.625Z,8.38
2022-12-13T16:08:37.784Z,7.90
2022-12-13T16:11:03.902Z,8.93
2022-12-13T16:13:30.495Z,8.77
2022-12-13T16:16:00.265Z,9.43
2022-12-13T16:18:35.805Z,9.50
2022-12-13T16:21:01.923Z,7.90
2022-12-13T16:23:28.175Z,8.45
2022-12-13T16:25:54.383Z,8.32
2022-12-13T16:28:20.516Z,9.35
2022-12-13T16:30:52.389Z,8.80
2022-12-13T16:33:26.688Z,9.77
2022-12-13T16:35:53.824Z,8.98
2022-12-13T16:38:26.492Z,9.50
2022-12-13T16:40:53.171Z,9.37
2022-12-13T16:43:19.304Z,9.85
2022-12-13T16:45:45.435Z,9.93
2022-12-13T16:48:11.675Z,10.30
2022-12-13T16:50:37.866Z,9.55
2022-12-13T16:53:03.983Z,10.30
2022-12-13T16:55:30.104Z,10.45
2022-12-13T16:57:56.217Z,11.07
2022-12-13T17:00:22.362Z,10.82
2022-12-13T17:02:48.505Z,10.02
2022-12-13T17:05:14.672Z,11.35
2022-12-13T17:07:40.769Z,11.00
2022-12-13T17:10:06.905Z,9.80
2022-12-13T17:12:33.026Z,10.57
2022-12-13T17:14:59.153Z,10.73
2022-12-13T17:17:25.270Z,9.82
2022-12-13T17:19:51.438Z,10.55
2022-12-13T17:22:17.585Z,10.65
2022-12-13T17:24:43.715Z,10.85
2022-12-13T17:27:09.816Z,11.50
2022-12-13T17:29:35.933Z,10.07
2022-12-13T17:32:02.031Z,10.45
2022-12-13T17:34:28.173Z,10.50
2022-12-13T17:36:54.284Z,11.68
2022-12-13T17:39:20.429Z,10.10
2022-12-13T17:41:54.650Z,10.18
2022-12-13T17:44:21.882Z,10.98
2022-12-13T17:46:54.543Z,11.10
2022-12-13T17:49:21.600Z,11.45
2022-12-13T17:51:51.541Z,10.27
2022-12-13T17:54:18.018Z,10.25
2022-12-13T17:56:44.143Z,12.10
2022-12-13T17:59:11.348Z,10.57
2022-12-13T18:01:37.502Z,10.73
2022-12-13T18:04:03.608Z,12.15
2022-12-13T18:06:29.760Z,10.70
2022-12-13T18:08:55.874Z,11.27
2022-12-13T18:11:37.348Z,10.95
2022-12-13T18:14:03.474Z,11.20
2022-12-13T18:16:36.193Z,10.85
2022-12-13T18:19:03.297Z,10.20
2022-12-13T18:21:29.461Z,10.48
2022-12-13T18:23:56.287Z,10.88
2022-12-13T18:26:22.563Z,11.90
2022-12-13T18:28:48.668Z,11.02
2022-12-13T18:31:14.852Z,10.82
2022-12-13T18:33:44.527Z,10.98
2022-12-13T18:36:13.474Z,11.07
2022-12-13T18:38:39.922Z,10.98
2022-12-13T18:41:06.069Z,10.93
2022-12-13T18:43:32.192Z,11.63
2022-12-13T18:45:58.329Z,11.50
2022-12-13T18:48:24.930Z,10.30
2022-12-13T18:50:51.239Z,11.13
2022-12-13T18:53:17.355Z,10.63
2022-12-13T18:55:43.473Z,10.13
2022-12-13T18:58:09.616Z,10.07
2022-12-13T19:00:35.714Z,9.07
2022-12-13T19:03:01.892Z,9.25
2022-12-13T19:05:28.042Z,10.27
2022-12-13T19:07:54.164Z,8.73
2022-12-13T19:10:20.296Z,9.18
2022-12-13T19:12:46.427Z,8.77
2022-12-13T19:15:12.582Z,8.65
2022-12-13T19:17:38.713Z,9.70
2022-12-13T19:20:04.904Z,10.15
2022-12-13T19:22:31.104Z,9.95
2022-12-13T19:24:57.216Z,9.00
2022-12-13T19:27:23.313Z,10.18
2022-12-13T19:29:49.470Z,9.63
2022-12-13T19:32:15.610Z,9.00
2022-12-13T19:34:41.785Z,9.18
2022-12-13T19:37:07.947Z,9.18
2022-12-13T19:39:34.070Z,8.85
2022-12-13T19:42:00.206Z,9.82
2022-12-13T19:44:26.386Z,8.90
2022-12-13T19:46:53.599Z,8.07
2022-12-13T19:49:19.891Z,8.80
2022-12-13T19:51:46.011Z,9.00
2022-12-13T19:54:12.260Z,7.80
2022-12-13T19:56:38.418Z,8.32
2022-12-13T19:59:04.573Z,7.40
2022-12-13T20:01:30.783Z,7.88
2022-12-13T20:03:57.055Z,7.07
2022-12-13T20:06:23.148Z,7.72
2022-12-13T20:08:49.369Z,7.40
2022-12-13T20:11:15.539Z,8.15
2022-12-13T20:13:41.757Z,7.70
2022-12-13T20:16:08.042Z,7.68
2022-12-13T20:18:34.284Z,6.93
2022-12-13T20:21:11.522Z,7.63
2022-12-13T20:23:38.806Z,8.10
2022-12-13T20:26:05.981Z,7.80
2022-12-13T20:28:33.330Z,7.55
2022-12-13T20:41:45.681Z,6.60
2022-12-13T20:46:53.140Z,7.90
2022-12-13T20:49:19.877Z,6.38
2022-12-13T21:02:30.533Z,6.20
2022-12-13T21:26:20.241Z,6.50
2022-12-13T21:31:40.512Z,5.88
2022-12-13T21:34:06.690Z,7.00
2022-12-13T21:36:32.797Z,6.45
2022-12-13T21:38:58.935Z,5.80
2022-12-13T21:41:25.093Z,6.70
2022-12-13T21:43:51.222Z,7.03
2022-12-13T21:46:17.330Z,6.28
2022-12-13T21:48:43.454Z,6.05
2022-12-13T21:51:09.558Z,6.63
2022-12-13T21:53:35.684Z,7.03
2022-12-13T21:56:01.788Z,7.22
2022-12-13T21:58:28.205Z,7.10
2022-12-13T22:00:54.560Z,6.10
2022-12-13T22:03:20.686Z,6.25
2022-12-13T22:05:46.814Z,6.80
2022-12-13T22:08:12.952Z,6.65
2022-12-13T22:10:39.069Z,6.88
2022-12-13T22:13:05.174Z,6.65
2022-12-13T22:15:31.291Z,6.38
2022-12-13T22:17:57.398Z,7.43
2022-12-13T22:20:23.567Z,6.53
2022-12-13T22:22:49.704Z,6.03
2022-12-13T22:25:15.824Z,6.40
2022-12-13T22:27:41.937Z,7.00
2022-12-13T22:30:08.068Z,6.22
2022-12-13T22:32:34.199Z,6.65
2022-12-13T22:35:00.324Z,6.72
2022-12-13T22:37:26.446Z,6.18
2022-12-13T22:39:52.567Z,6.50
2022-12-13T22:42:18.697Z,6.70
2022-12-13T22:44:44.817Z,6.70
2022-12-13T22:47:10.952Z,6.90
2022-12-13T22:49:37.065Z,6.88
2022-12-13T22:52:03.187Z,6.55
2022-12-13T22:54:29.295Z,6.82
2022-12-13T22:56:55.412Z,6.40
2022-12-13T22:59:21.499Z,7.45
2022-12-13T23:01:47.845Z,7.18
2022-12-13T23:04:14.012Z,7.22
2022-12-13T23:06:40.161Z,7.00
2022-12-13T23:09:06.264Z,6.70
2022-12-13T23:11:32.376Z,6.72
2022-12-13T23:13:58.475Z,6.57
2022-12-13T23:16:24.619Z,7.13
2022-12-13T23:18:50.771Z,7.28
2022-12-13T23:21:16.880Z,6.82
2022-12-13T23:23:43.009Z,6.95
2022-12-13T23:26:09.112Z,6.68
2022-12-13T23:28:35.256Z,7.07
2022-12-13T23:31:01.397Z,6.90
2022-12-13T23:33:27.625Z,6.70
2022-12-13T23:35:53.767Z,6.75
2022-12-13T23:38:19.881Z,7.47
2022-12-13T23:40:45.995Z,6.93
2022-12-13T23:43:12.216Z,7.28
2022-12-13T23:45:38.317Z,7.70
2022-12-13T23:48:07.095Z,8.35
2022-12-13T23:50:36.215Z,7.85
2022-12-13T23:53:02.333Z,8.07
2022-12-13T23:55:28.429Z,7.68
2022-12-13T23:57:54.544Z,7.43
